Time;durP1;ratioP1;P1;durP2;ratioP2;P2;SDS_P1;SDS_P2;PMS_P1;PMS_P2;Temp;Humidity;BMP_temperature;BMP_pressure;BME280_temperature;BME280_humidity;BME280_pressure;Samples;Min_cycle;Max_cycle;Signal;HPM_P1;HPM_P2
2024/02/02 00:01:30;;;;;;;43.65;15.45;;;;;;;3.20;53.25;94409.72;5045350;28;20240;-79
2024/02/02 00:03:56;;;;;;;31.80;13.60;;;;;;;3.12;53.09;94408.34;5045497;28;20092;-79
2024/02/02 00:06:21;;;;;;;27.77;11.80;;;;;;;3.03;53.46;94404.56;5045388;28;20024;-79
2024/02/02 00:08:46;;;;;;;29.25;11.25;;;;;;;2.99;53.92;94409.56;5044941;28;20018;-79
2024/02/02 00:11:12;;;;;;;23.73;10.65;;;;;;;2.91;54.35;94407.41;5045538;28;20092;-79
2024/02/02 00:13:37;;;;;;;24.15;10.35;;;;;;;2.86;54.35;94415.25;5045351;28;20031;-79
2024/02/02 00:16:04;;;;;;;27.80;9.65;;;;;;;2.83;54.36;94407.88;5044983;28;20044;-79
2024/02/02 00:18:29;;;;;;;22.50;9.90;;;;;;;2.80;54.45;94408.34;5044975;28;20021;-79
2024/02/02 00:20:55;;;;;;;20.27;8.73;;;;;;;2.71;55.02;94401.97;5044901;28;20056;-79
2024/02/02 00:23:20;;;;;;;24.05;9.73;;;;;;;2.67;55.27;94408.78;5044743;28;20108;-79
2024/02/02 00:25:45;;;;;;;20.98;8.60;;;;;;;2.60;55.58;94414.22;5044725;28;20319;-78
2024/02/02 00:28:11;;;;;;;25.10;9.52;;;;;;;2.55;55.85;94409.72;5043701;28;20104;-79
2024/02/02 00:30:37;;;;;;;20.35;8.43;;;;;;;2.56;56.06;94402.59;5044732;28;20024;-78
2024/02/02 00:33:02;;;;;;;17.60;6.97;;;;;;;2.53;56.07;94406.53;5044128;28;20017;-79
2024/02/02 00:35:28;;;;;;;15.52;6.95;;;;;;;2.57;56.14;94405.00;5044705;28;20307;-79
2024/02/02 00:37:54;;;;;;;21.15;6.68;;;;;;;2.64;56.22;94402.16;5044747;28;20311;-79
2024/02/02 00:40:19;;;;;;;15.18;5.35;;;;;;;2.72;56.18;94403.53;5044439;28;20017;-79
2024/02/02 00:42:44;;;;;;;11.32;4.78;;;;;;;2.81;56.01;94402.06;5043368;28;20025;-79
2024/02/02 00:45:11;;;;;;;13.52;4.57;;;;;;;2.95;55.55;94402.41;5044751;28;20018;-79
2024/02/02 00:47:36;;;;;;;8.55;4.22;;;;;;;3.05;55.62;94399.84;5044539;28;20089;-78
2024/02/02 00:50:04;;;;;;;12.23;4.18;;;;;;;3.20;55.46;94393.91;5044991;28;20032;-79
2024/02/02 00:52:29;;;;;;;8.40;3.78;;;;;;;3.34;55.52;94391.63;5044506;28;20029;-79
2024/02/02 00:54:54;;;;;;;12.07;4.78;;;;;;;3.51;54.77;94394.09;5044734;28;20188;-79
2024/02/02 00:57:20;;;;;;;12.50;4.35;;;;;;;3.55;54.74;94393.31;5044295;28;20373;-79
2024/02/02 00:59:47;;;;;;;12.13;4.30;;;;;;;3.53;55.46;94387.53;5044271;28;20223;-78
2024/02/02 01:02:13;;;;;;;10.68;3.72;;;;;;;3.53;56.05;94386.72;5044019;28;20048;-78
2024/02/02 01:04:38;;;;;;;8.88;3.20;;;;;;;3.63;56.24;94386.00;5044371;28;20037;-78
2024/02/02 01:07:04;;;;;;;8.43;3.72;;;;;;;3.93;54.42;94372.94;5044048;28;20313;-79
2024/02/02 01:09:29;;;;;;;7.05;3.17;;;;;;;4.13;53.15;94374.88;5044004;28;20075;-79
2024/02/02 01:11:54;;;;;;;8.20;3.60;;;;;;;4.31;51.49;94364.84;5043961;28;20025;-78
2024/02/02 01:14:20;;;;;;;7.43;3.50;;;;;;;4.45;51.11;94373.84;5043818;28;20316;-79
2024/02/02 01:16:46;;;;;;;11.40;4.13;;;;;;;4.57;51.01;94363.84;5043872;28;20025;-79
2024/02/02 01:19:11;;;;;;;8.57;3.63;;;;;;;4.69;50.35;94358.31;5044145;28;20083;-78
2024/02/02 01:21:36;;;;;;;10.13;4.15;;;;;;;4.71;50.65;94348.28;5043907;28;20057;-78
2024/02/02 01:24:02;;;;;;;10.32;4.95;;;;;;;4.77;50.19;94352.50;5043654;28;20069;-78
2024/02/02 01:26:27;;;;;;;9.15;4.18;;;;;;;4.86;50.83;94355.41;5043955;28;20378;-78
2024/02/02 01:28:53;;;;;;;14.55;3.65;;;;;;;4.93;50.52;94350.66;5043854;28;20025;-79
2024/02/02 01:31:18;;;;;;;13.25;4.75;;;;;;;4.95;51.26;94351.19;5043775;28;20029;-78
2024/02/02 01:33:44;;;;;;;10.15;4.68;;;;;;;4.97;51.13;94354.34;5043609;28;20029;-78
2024/02/02 01:36:09;;;;;;;8.75;4.35;;;;;;;5.03;51.38;94349.88;5043775;28;20027;-79
2024/02/02 01:38:34;;;;;;;17.20;4.30;;;;;;;5.02;51.97;94372.81;5043860;28;20044;-78
2024/02/02 01:41:00;;;;;;;12.48;4.60;;;;;;;5.01;51.23;94358.06;5043724;28;20029;-78
2024/02/02 01:43:26;;;;;;;11.95;5.22;;;;;;;5.03;50.54;94363.06;5042497;28;20025;-78
2024/02/02 01:45:51;;;;;;;15.57;5.32;;;;;;;5.05;51.33;94370.72;5043443;28;20037;-78
2024/02/02 01:48:17;;;;;;;12.15;5.32;;;;;;;5.03;50.96;94363.84;5043537;28;20021;-78
2024/02/02 01:50:42;;;;;;;10.00;5.20;;;;;;;5.06;50.96;94353.81;5043261;28;20116;-79
2024/02/02 01:53:08;;;;;;;10.95;5.22;;;;;;;5.07;52.23;94381.81;5043779;28;20013;-78
2024/02/02 01:55:33;;;;;;;10.25;3.92;;;;;;;5.14;52.07;94348.00;5043598;28;20239;-78
2024/02/02 01:57:59;;;;;;;11.60;4.45;;;;;;;5.18;51.70;94368.34;5043394;28;20344;-78
2024/02/02 02:00:25;;;;;;;10.85;4.97;;;;;;;5.17;52.04;94355.38;5043147;28;20025;-78
2024/02/02 02:02:50;;;;;;;9.27;4.60;;;;;;;5.12;52.34;94344.81;5043040;28;20029;-78
2024/02/02 02:05:15;;;;;;;12.25;4.80;;;;;;;5.07;52.27;94350.09;5043220;28;20319;-78
2024/02/02 02:07:44;;;;;;;9.68;4.55;;;;;;;5.10;51.57;94365.44;5042992;28;20026;-78
2024/02/02 02:10:10;;;;;;;16.08;5.60;;;;;;;5.13;52.23;94354.31;5042129;28;20088;-78
2024/02/02 02:12:36;;;;;;;11.27;4.80;;;;;;;5.18;52.76;94351.69;5043187;28;20950;-78
2024/02/02 02:15:02;;;;;;;13.80;5.82;;;;;;;5.10;54.54;94365.44;5043171;28;20033;-78
2024/02/02 02:17:27;;;;;;;12.40;6.25;;;;;;;5.10;60.29;94370.72;5043171;28;20029;-78
2024/02/02 02:19:52;;;;;;;11.43;5.35;;;;;;;5.12;57.69;94363.31;5041884;28;20029;-78
2024/02/02 02:22:18;;;;;;;13.40;5.90;;;;;;;5.09;54.13;94363.84;5043764;28;20097;-79
2024/02/02 02:24:43;;;;;;;9.52;5.75;;;;;;;5.03;53.86;94350.66;5043080;28;20363;-78
2024/02/02 02:27:10;;;;;;;10.68;5.43;;;;;;;5.01;53.71;94367.84;5043408;28;20372;-78
2024/02/02 02:29:36;;;;;;;15.20;6.05;;;;;;;5.06;53.29;94353.81;5043050;28;20029;-78
2024/02/02 02:32:01;;;;;;;15.20;7.00;;;;;;;5.10;53.20;94360.16;5043088;28;20029;-78
2024/02/02 02:34:27;;;;;;;17.15;6.18;;;;;;;5.02;53.20;94358.84;5042987;28;20339;-78
2024/02/02 02:36:55;;;;;;;12.90;6.57;;;;;;;5.00;52.13;94368.88;5042692;28;20362;-78
2024/02/02 02:39:21;;;;;;;13.43;5.85;;;;;;;4.97;52.00;94370.22;5043152;28;20216;-79
2024/02/02 02:41:46;;;;;;;13.48;6.45;;;;;;;4.92;52.20;94374.69;5042751;28;20127;-79
2024/02/02 02:44:14;;;;;;;14.13;7.60;;;;;;;4.90;52.76;94372.31;5043019;28;20100;-77
2024/02/02 02:46:40;;;;;;;13.00;6.88;;;;;;;4.80;53.66;94377.59;5042955;28;20024;-79
2024/02/02 02:49:06;;;;;;;16.83;7.28;;;;;;;4.84;54.03;94376.00;5042892;28;20312;-80
2024/02/02 02:51:31;;;;;;;18.17;6.32;;;;;;;4.83;54.57;94377.06;5042514;28;20028;-80
2024/02/02 02:53:57;;;;;;;20.75;6.65;;;;;;;4.84;54.83;94370.72;5042853;28;20026;-80
2024/02/02 02:56:22;;;;;;;18.35;6.97;;;;;;;4.76;55.79;94344.84;5046573;28;20249;-79
2024/02/02 02:58:47;;;;;;;17.00;6.70;;;;;;;4.78;57.04;94369.13;5046940;28;20328;-80
2024/02/02 03:01:13;;;;;;;18.95;7.82;;;;;;;4.80;57.81;94369.66;5047016;28;20092;-79
2024/02/02 03:03:38;;;;;;;16.92;7.75;;;;;;;4.78;59.13;94358.56;5046445;28;20071;-79
2024/02/02 03:06:04;;;;;;;16.73;7.57;;;;;;;4.76;61.42;94363.31;5046721;28;20025;-79
2024/02/02 03:08:30;;;;;;;15.40;7.57;;;;;;;4.76;62.98;94368.59;5046745;28;20048;-79
2024/02/02 03:10:57;;;;;;;12.35;5.75;;;;;;;4.78;62.88;94359.38;5046930;28;20335;-79
2024/02/02 03:13:23;;;;;;;19.73;6.88;;;;;;;4.80;63.71;94364.38;5046354;28;20092;-80
2024/02/02 03:15:49;;;;;;;12.00;6.03;;;;;;;4.78;63.91;94361.22;5046513;28;20032;-79
2024/02/02 03:18:14;;;;;;;11.30;6.18;;;;;;;4.81;64.00;94374.69;5044976;28;20025;-79
2024/02/02 03:20:40;;;;;;;10.65;6.10;;;;;;;4.78;63.98;94363.84;5046593;28;20324;-79
2024/02/02 03:23:05;;;;;;;15.95;6.28;;;;;;;4.76;64.14;94361.50;5046562;28;20288;-79
2024/02/02 03:25:31;;;;;;;10.65;6.15;;;;;;;4.82;63.69;94364.91;5046250;28;20029;-79
2024/02/02 03:27:56;;;;;;;15.50;6.72;;;;;;;4.78;63.79;94359.38;5046755;28;20029;-79
2024/02/02 03:30:21;;;;;;;13.27;5.93;;;;;;;4.79;64.44;94368.09;5045665;28;20025;-79
2024/02/02 03:32:48;;;;;;;14.20;6.35;;;;;;;4.82;64.25;94380.75;5046330;28;20084;-79
2024/02/02 03:35:14;;;;;;;14.85;5.75;;;;;;;4.72;65.13;94364.91;5045964;28;20029;-79
2024/02/02 03:37:39;;;;;;;13.43;5.05;;;;;;;4.66;66.66;94365.97;5046143;28;20049;-79
2024/02/02 03:40:05;;;;;;;10.65;5.10;;;;;;;4.57;67.95;94332.16;5045599;28;20025;-79
2024/02/02 03:42:30;;;;;;;14.70;6.22;;;;;;;4.54;68.02;94355.66;5045760;28;20109;-80
2024/02/02 03:44:56;;;;;;;11.57;6.22;;;;;;;4.58;67.71;94369.91;5046122;28;20025;-79
2024/02/02 03:47:22;;;;;;;12.50;5.80;;;;;;;4.60;67.45;94384.44;5044472;28;20033;-79
2024/02/02 03:49:47;;;;;;;11.57;6.15;;;;;;;4.59;67.16;94372.28;5045814;28;20032;-79
2024/02/02 03:52:13;;;;;;;10.05;5.47;;;;;;;4.58;67.10;94368.09;5045464;28;20316;-79
2024/02/02 03:54:38;;;;;;;13.48;5.68;;;;;;;4.58;67.11;94368.09;5045756;28;20037;-79
2024/02/02 03:57:04;;;;;;;13.20;5.38;;;;;;;4.56;68.04;94377.28;5045369;28;20033;-79
2024/02/02 03:59:29;;;;;;;14.05;6.78;;;;;;;4.46;67.97;94372.81;5045539;28;20338;-79
2024/02/02 04:01:54;;;;;;;15.48;5.93;;;;;;;4.49;67.71;94353.03;5045127;28;20052;-79
2024/02/02 04:04:20;;;;;;;10.10;5.43;;;;;;;4.40;69.15;94363.31;5045503;28;20028;-80
2024/02/02 04:06:46;;;;;;;12.95;6.65;;;;;;;4.31;69.11;94355.09;5044664;28;20085;-79
2024/02/02 04:09:12;;;;;;;12.30;5.40;;;;;;;4.35;66.98;94381.75;5045428;28;20029;-79
2024/02/02 04:11:37;;;;;;;7.68;4.93;;;;;;;4.28;67.04;94375.94;5045380;28;20081;-79
2024/02/02 04:14:03;;;;;;;8.80;4.30;;;;;;;4.33;66.80;94357.47;5045098;28;20029;-80
2024/02/02 04:16:28;;;;;;;12.98;5.53;;;;;;;4.32;65.78;94369.09;5044144;28;20079;-79
2024/02/02 04:18:54;;;;;;;14.68;6.82;;;;;;;4.34;65.42;94401.31;5043662;28;20029;-80
2024/02/02 04:21:19;;;;;;;14.20;6.07;;;;;;;4.25;65.36;94389.66;5044340;28;20025;-80
2024/02/02 04:23:45;;;;;;;12.23;5.68;;;;;;;4.12;65.82;94412.84;5045082;28;20049;-79
2024/02/02 04:26:10;;;;;;;11.60;5.22;;;;;;;4.06;65.80;94399.88;5043398;28;20032;-79
2024/02/02 04:28:36;;;;;;;11.52;5.88;;;;;;;4.06;65.95;94397.25;5043841;28;20319;-79
2024/02/02 04:31:01;;;;;;;12.38;6.30;;;;;;;4.13;65.52;94417.06;5044842;28;20078;-79
2024/02/02 04:33:27;;;;;;;14.20;6.22;;;;;;;4.09;64.65;94410.72;5044060;28;20255;-80
2024/02/02 04:35:52;;;;;;;13.73;5.82;;;;;;;4.05;64.76;94425.47;5044163;28;20017;-81
2024/02/02 04:38:17;;;;;;;12.73;6.80;;;;;;;3.82;65.41;94419.56;5044571;28;20125;-81
2024/02/02 04:40:47;;;;;;;10.70;5.60;;;;;;;3.70;67.20;94428.72;5044691;28;20308;-81
2024/02/02 04:43:13;;;;;;;12.35;6.57;;;;;;;3.72;67.22;94432.69;5044777;28;20033;-80
2024/02/02 04:45:38;;;;;;;16.15;6.32;;;;;;;3.70;67.36;94429.50;5044723;28;20266;-81
2024/02/02 04:48:05;;;;;;;12.05;6.22;;;;;;;3.66;67.39;94417.88;5044568;28;20041;-80
2024/02/02 04:50:31;;;;;;;11.27;5.68;;;;;;;3.66;67.68;94427.66;5044526;28;20327;-79
2024/02/02 04:52:56;;;;;;;12.32;5.97;;;;;;;3.66;67.86;94420.53;5043591;28;20068;-79
2024/02/02 04:55:22;;;;;;;12.65;6.15;;;;;;;3.63;68.51;94444.00;5044507;28;20033;-80
2024/02/02 04:57:47;;;;;;;13.40;6.40;;;;;;;3.57;68.47;94445.78;5044352;28;20049;-79
2024/02/02 05:00:13;;;;;;;16.60;7.15;;;;;;;3.51;68.67;94444.97;5042955;28;20037;-78
2024/02/02 05:02:39;;;;;;;12.70;6.80;;;;;;;3.48;68.95;94453.41;5044066;28;20067;-79
2024/02/02 05:05:07;;;;;;;13.65;6.82;;;;;;;3.45;68.82;94453.88;5043949;28;20053;-79
2024/02/02 05:07:35;;;;;;;17.23;7.35;;;;;;;3.45;68.81;94474.97;5044081;28;20224;-79
2024/02/02 05:10:00;;;;;;;10.95;5.97;;;;;;;3.36;69.25;94450.94;5044521;28;20040;-79
2024/02/02 05:12:27;;;;;;;11.60;5.90;;;;;;;3.32;69.68;94449.84;5044515;28;20223;-79
2024/02/02 05:14:52;;;;;;;11.68;5.60;;;;;;;3.28;69.75;94461.94;5043047;28;20242;-79
2024/02/02 05:17:17;;;;;;;10.45;5.55;;;;;;;3.27;70.25;94457.72;5043618;28;20041;-79
2024/02/02 05:19:43;;;;;;;15.18;6.72;;;;;;;3.21;70.48;94461.34;5043929;28;20021;-79
2024/02/02 05:22:08;;;;;;;14.23;5.90;;;;;;;3.25;70.63;94469.56;5043927;28;20037;-79
2024/02/02 05:24:34;;;;;;;13.05;6.05;;;;;;;3.25;70.73;94472.97;5043225;28;20041;-79
2024/02/02 05:27:00;;;;;;;12.18;6.07;;;;;;;3.23;70.92;94461.88;5040958;28;20689;-77
2024/02/02 05:29:25;;;;;;;14.85;6.05;;;;;;;3.16;71.11;94472.66;5042492;28;20164;-78
2024/02/02 05:31:51;;;;;;;11.73;6.00;;;;;;;3.14;71.06;94469.47;5043879;28;20022;-78
2024/02/02 05:34:16;;;;;;;10.93;6.80;;;;;;;3.15;71.24;94484.22;5043010;28;20306;-77
2024/02/02 05:36:41;;;;;;;12.98;6.00;;;;;;;3.09;71.68;94489.69;5042884;28;20043;-79
2024/02/02 05:39:09;;;;;;;13.57;6.45;;;;;;;3.11;71.98;94527.13;5043713;28;20025;-80
2024/02/02 05:41:34;;;;;;;19.05;6.53;;;;;;;3.10;72.22;94515.78;5043619;28;20036;-79
2024/02/02 05:44:00;;;;;;;11.88;6.78;;;;;;;3.05;72.47;94507.03;5043589;28;20025;-79
2024/02/02 05:46:25;;;;;;;14.18;6.10;;;;;;;2.93;73.39;94494.03;5043256;28;20060;-77
2024/02/02 05:48:51;;;;;;;11.82;6.72;;;;;;;2.95;73.52;94500.66;5043351;28;20025;-78
2024/02/02 05:51:16;;;;;;;11.95;6.47;;;;;;;2.88;73.76;94510.59;5042805;28;20022;-79
2024/02/02 05:53:42;;;;;;;13.27;6.93;;;;;;;2.91;74.06;94506.66;5043445;28;20088;-79
2024/02/02 05:56:07;;;;;;;11.85;6.50;;;;;;;2.87;74.76;94516.91;5043383;28;20284;-79
2024/02/02 05:58:32;;;;;;;13.63;7.20;;;;;;;2.78;75.45;94508.63;5043181;28;20047;-79
2024/02/02 06:00:58;;;;;;;13.82;7.90;;;;;;;2.67;77.09;94522.75;5043091;28;20255;-78
2024/02/02 06:03:23;;;;;;;15.55;7.82;;;;;;;2.62;77.83;94520.03;5042872;28;20033;-78
2024/02/02 06:05:49;;;;;;;14.85;8.70;;;;;;;2.57;78.39;94520.78;5042932;28;20025;-78
2024/02/02 06:08:15;;;;;;;15.77;8.20;;;;;;;2.61;78.41;94534.25;5041820;28;20040;-78
2024/02/02 06:10:40;;;;;;;14.98;8.98;;;;;;;2.58;78.92;94540.00;5043028;28;20053;-78
2024/02/02 06:13:09;;;;;;;19.38;9.10;;;;;;;2.54;79.61;94570.47;5043204;28;20071;-79
2024/02/02 06:15:34;;;;;;;18.77;8.45;;;;;;;2.45;80.46;94548.28;5042767;28;20033;-79
2024/02/02 06:18:00;;;;;;;21.55;9.90;;;;;;;2.37;81.26;94542.41;5042857;28;20060;-79
2024/02/02 06:20:25;;;;;;;19.92;10.13;;;;;;;2.32;81.80;94592.34;5043228;28;20258;-79
2024/02/02 06:22:51;;;;;;;19.60;10.20;;;;;;;2.29;82.33;94563.06;5041437;28;20026;-79
2024/02/02 06:25:17;;;;;;;22.30;11.90;;;;;;;2.24;82.70;94560.38;5042973;28;20030;-79
2024/02/02 06:27:43;;;;;;;23.30;11.93;;;;;;;2.17;83.46;94573.69;5040995;28;20031;-79
2024/02/02 06:30:08;;;;;;;24.58;10.95;;;;;;;2.31;83.20;94568.91;5041315;28;20324;-78
2024/02/02 06:32:39;;;;;;;18.50;10.18;;;;;;;2.23;82.80;94569.31;5042505;28;20056;-78
2024/02/02 06:35:05;;;;;;;19.05;9.63;;;;;;;2.23;82.55;94571.94;5042313;28;20033;-78
2024/02/02 06:37:31;;;;;;;21.55;11.82;;;;;;;2.19;82.90;94584.78;5041854;28;20104;-78
2024/02/02 06:39:57;;;;;;;22.85;11.55;;;;;;;2.18;83.12;94598.97;5042910;28;20017;-78
2024/02/02 06:42:26;;;;;;;27.90;13.73;;;;;;;2.15;82.79;94591.56;5042691;28;20025;-79
2024/02/02 06:44:51;;;;;;;24.65;12.75;;;;;;;2.12;83.16;94579.69;5042727;28;20026;-79
2024/02/02 06:47:17;;;;;;;26.10;11.93;;;;;;;2.10;82.31;94589.66;5042512;28;20097;-79
2024/02/02 06:49:44;;;;;;;24.67;11.55;;;;;;;2.19;81.85;94569.00;5041661;28;20009;-78
2024/02/02 06:52:09;;;;;;;20.75;10.85;;;;;;;2.20;79.75;94589.81;5042128;28;20017;-78
2024/02/02 06:54:35;;;;;;;19.30;9.60;;;;;;;2.25;78.57;94572.50;5041376;28;20043;-79
2024/02/02 06:57:00;;;;;;;15.25;7.32;;;;;;;2.37;74.63;94560.03;5042470;28;20095;-80
2024/02/02 06:59:26;;;;;;;14.60;7.30;;;;;;;2.54;71.97;94570.47;5042487;28;20021;-79
2024/02/02 07:01:52;;;;;;;13.13;5.95;;;;;;;2.70;70.46;94568.84;5042393;28;20021;-78
2024/02/02 07:04:18;;;;;;;12.05;5.32;;;;;;;2.80;70.10;94566.31;5042462;28;20052;-78
2024/02/02 07:06:44;;;;;;;12.35;6.18;;;;;;;2.85;70.36;94571.66;5042519;28;20323;-78
2024/02/02 07:09:18;;;;;;;13.15;6.45;;;;;;;2.91;71.18;94569.84;5042701;28;20041;-78
2024/02/02 07:12:03;;;;;;;11.32;5.53;;;;;;;2.82;71.70;94590.56;5042369;28;20028;-78
2024/02/02 07:14:48;;;;;;;16.67;7.75;;;;;;;2.85;71.36;94579.53;5042342;28;20021;-78
2024/02/02 07:17:33;;;;;;;12.65;7.15;;;;;;;2.83;71.62;94597.44;5042441;28;20032;-78
2024/02/02 07:20:00;;;;;;;15.82;8.23;;;;;;;2.81;71.48;94579.25;5042661;28;20033;-79
2024/02/02 07:22:37;;;;;;;15.23;7.03;;;;;;;2.89;71.77;94593.81;5042538;28;20029;-80
2024/02/02 07:25:06;;;;;;;15.07;7.65;;;;;;;2.80;71.77;94596.06;5042433;28;20037;-79
2024/02/02 07:28:14;;;;;;;20.90;8.82;;;;;;;2.77;72.16;94599.19;5041678;28;20033;-78
2024/02/02 07:30:51;;;;;;;10.52;6.38;;;;;;;2.78;71.67;94608.69;5035753;28;20030;-77
2024/02/02 07:33:27;;;;;;;21.05;8.18;;;;;;;2.79;72.10;94610.28;5042898;28;20021;-76
2024/02/02 07:35:58;;;;;;;15.43;8.93;;;;;;;2.76;72.73;94610.75;5042172;28;20060;-74
2024/02/02 07:38:43;;;;;;;17.57;9.50;;;;;;;2.64;74.06;94617.19;5042538;28;20040;-83
2024/02/02 07:41:11;;;;;;;20.20;9.30;;;;;;;2.59;74.70;94610.81;5043057;28;20323;-84
2024/02/02 07:43:37;;;;;;;16.67;9.75;;;;;;;2.65;74.89;94618.81;5045036;28;20251;-85
2024/02/02 07:46:06;;;;;;;17.02;8.88;;;;;;;2.56;75.55;94618.41;5045899;28;20040;-86
2024/02/02 07:48:32;;;;;;;19.00;9.07;;;;;;;2.55;75.79;94614.19;5045686;28;20026;-86
2024/02/02 07:50:58;;;;;;;19.63;10.20;;;;;;;2.58;75.99;94614.47;5045874;28;20021;-83
2024/02/02 07:53:23;;;;;;;18.25;10.18;;;;;;;2.53;76.61;94611.81;5044469;28;20022;-82
2024/02/02 07:55:49;;;;;;;16.25;8.02;;;;;;;2.57;76.52;94618.16;5045377;28;20025;-84
2024/02/02 07:58:20;;;;;;;18.67;9.77;;;;;;;2.58;76.03;94606.59;5045259;28;20289;-82
2024/02/02 08:00:46;;;;;;;18.27;9.43;;;;;;;2.57;75.25;94605.00;5045564;28;20047;-82
2024/02/02 08:03:11;;;;;;;20.02;9.45;;;;;;;2.50;75.72;94625.44;5045639;28;20025;-81
2024/02/02 08:05:37;;;;;;;20.15;10.55;;;;;;;2.60;75.90;94607.13;5045769;28;20021;-82
2024/02/02 08:08:04;;;;;;;17.85;8.73;;;;;;;2.53;75.39;94601.28;5060710;28;20048;-81
2024/02/02 08:10:29;;;;;;;21.08;9.30;;;;;;;2.61;75.31;94613.22;5045411;28;20017;-81
2024/02/02 08:13:05;;;;;;;21.08;9.48;;;;;;;2.67;74.99;94621.97;5045833;28;20327;-90
2024/02/02 08:15:30;;;;;;;16.02;9.15;;;;;;;2.70;74.73;94626.75;5046066;28;20523;-86
2024/02/02 08:17:56;;;;;;;17.23;9.88;;;;;;;2.78;73.95;94623.69;5045330;28;20220;-87
2024/02/02 08:20:21;;;;;;;19.90;10.13;;;;;;;2.88;73.79;94630.91;5045100;28;20064;-89
2024/02/02 08:22:47;;;;;;;18.42;10.38;;;;;;;2.93;73.17;94644.13;5046003;28;20041;-93
2024/02/02 08:25:13;;;;;;;21.10;10.00;;;;;;;2.96;72.10;94641.81;5044554;28;20116;-88
2024/02/02 08:27:39;;;;;;;19.40;9.05;;;;;;;3.17;71.53;94632.28;5045535;28;20026;-87
2024/02/02 08:30:06;;;;;;;14.15;8.13;;;;;;;3.30;70.58;94623.22;5043747;28;20075;-81
2024/02/02 08:39:18;;;;;;;17.50;9.55;;;;;;;3.24;69.12;94626.84;5846800;22;19917;-93
2024/02/02 08:41:47;;;;;;;18.15;9.60;;;;;;;3.26;69.41;94613.41;5067229;28;20043;-95
2024/02/02 08:47:34;;;;;;;17.05;8.27;;;;;;;2.96;68.26;94651.53;5482409;23;20054;-96
2024/02/02 08:53:16;;;;;;;19.45;9.48;;;;;;;3.09;68.32;94624.03;5118774;23;20077;-86
2024/02/02 08:55:45;;;;;;;19.42;9.45;;;;;;;3.19;67.38;94610.97;5026881;28;20022;-91
2024/02/02 08:58:31;;;;;;;18.60;7.80;;;;;;;3.18;67.01;94614.66;5024255;28;20022;-88
2024/02/02 09:00:57;;;;;;;16.10;8.60;;;;;;;3.20;65.95;94625.75;5024276;28;20056;-90
2024/02/02 09:03:40;;;;;;;13.50;6.80;;;;;;;3.03;64.25;94610.00;5025854;28;20030;-88
2024/02/02 09:06:34;;;;;;;10.15;4.85;;;;;;;2.88;63.30;94634.34;5025770;28;20025;-80
2024/02/02 09:09:05;;;;;;;15.13;7.10;;;;;;;2.95;63.66;94637.59;5025511;28;20026;-84
2024/02/02 09:11:31;;;;;;;12.00;6.88;;;;;;;3.10;63.09;94649.34;5025170;28;20120;-86
2024/02/02 09:14:08;;;;;;;14.52;6.72;;;;;;;3.09;62.82;94637.19;5025476;28;20132;-87
2024/02/02 09:16:52;;;;;;;13.88;6.07;;;;;;;3.08;61.57;94630.34;5025435;28;20045;-95
2024/02/02 09:19:29;;;;;;;12.60;5.85;;;;;;;3.04;61.29;94630.03;5025267;28;20021;-93
2024/02/02 09:21:57;;;;;;;11.80;6.25;;;;;;;3.06;60.97;94627.97;5026352;28;20309;-91
2024/02/02 09:24:41;;;;;;;16.02;7.07;;;;;;;3.20;61.55;94642.34;5026002;28;20064;-94
2024/02/02 09:27:14;;;;;;;14.30;6.80;;;;;;;3.21;61.14;94632.59;5026192;28;20026;-93
2024/02/02 09:29:52;;;;;;;14.93;6.20;;;;;;;3.22;59.68;94647.38;5025055;28;20033;-93
2024/02/02 09:32:17;;;;;;;15.55;6.63;;;;;;;3.20;58.98;94638.91;5026178;28;20024;-93
2024/02/02 09:34:45;;;;;;;15.52;6.50;;;;;;;3.21;58.13;94640.50;5025342;28;20100;-94
2024/02/02 09:37:18;;;;;;;14.80;6.43;;;;;;;3.13;58.59;94651.47;5025438;28;20049;-95
2024/02/02 09:39:51;;;;;;;10.27;5.13;;;;;;;3.09;58.65;94655.63;5025253;28;20022;-94
2024/02/02 09:42:23;;;;;;;10.20;5.68;;;;;;;3.04;58.94;94655.59;5025340;28;20141;-92
2024/02/02 09:44:57;;;;;;;11.77;5.63;;;;;;;3.06;59.29;94651.66;5025913;28;20033;-92
2024/02/02 09:47:39;;;;;;;11.00;6.32;;;;;;;3.05;59.72;94618.44;5023863;28;20049;-94
2024/02/02 09:50:17;;;;;;;11.68;6.10;;;;;;;3.08;59.41;94623.25;5023107;28;20053;-90
2024/02/02 09:53:10;;;;;;;14.00;5.68;;;;;;;3.14;59.07;94616.19;5023650;28;20113;-88
2024/02/02 09:56:46;;;;;;;13.35;6.38;;;;;;;3.26;58.92;94613.41;5024853;28;20076;-90
2024/02/02 09:59:25;;;;;;;11.18;6.18;;;;;;;3.34;58.36;94634.06;4952025;28;20105;-90
2024/02/02 10:02:09;;;;;;;12.63;5.68;;;;;;;3.33;58.18;94625.34;4983400;28;20051;-88
2024/02/02 10:04:48;;;;;;;17.73;6.32;;;;;;;3.34;58.50;94623.53;5019247;28;20151;-84
2024/02/02 10:07:50;;;;;;;11.70;5.80;;;;;;;3.45;58.10;94627.81;5023644;28;20211;-83
2024/02/02 10:10:31;;;;;;;19.42;6.40;;;;;;;3.39;58.65;94642.78;5023631;28;20064;-85
2024/02/02 10:13:29;;;;;;;15.48;6.40;;;;;;;3.37;58.61;94626.44;5023624;28;20022;-84
2024/02/02 10:16:14;;;;;;;16.38;6.65;;;;;;;3.43;58.69;94619.38;4990173;28;20033;-84
2024/02/02 10:18:45;;;;;;;10.38;5.88;;;;;;;3.57;59.05;94614.50;5022606;28;20030;-88
2024/02/02 10:21:27;;;;;;;17.80;6.40;;;;;;;3.64;58.15;94609.00;5023925;28;20029;-88
2024/02/02 10:24:07;;;;;;;12.03;6.47;;;;;;;3.64;58.72;94609.81;5022354;28;20043;-90
2024/02/02 10:26:43;;;;;;;13.00;6.57;;;;;;;3.69;58.79;94609.84;5022432;28;20261;-89
2024/02/02 10:29:29;;;;;;;10.77;5.95;;;;;;;3.77;58.36;94605.97;5021398;28;20022;-90
2024/02/02 10:32:10;;;;;;;11.52;5.47;;;;;;;3.77;58.25;94606.75;5023108;28;20064;-90
2024/02/02 10:35:01;;;;;;;10.10;5.00;;;;;;;3.69;58.54;94627.53;5022106;28;20387;-89
2024/02/02 10:37:33;;;;;;;12.27;6.03;;;;;;;3.72;58.61;94619.88;5022243;28;20021;-89
2024/02/02 10:40:16;;;;;;;14.13;6.00;;;;;;;3.85;58.64;94616.06;5021969;28;20046;-89
2024/02/02 10:42:53;;;;;;;;;;;;;;;3.88;58.63;94618.19;5022907;28;20109;-89
2024/02/02 10:45:26;;;;;;;10.10;5.32;;;;;;;3.82;58.67;94627.09;5023088;28;20266;-87
2024/02/02 10:48:10;;;;;;;11.90;5.55;;;;;;;3.76;58.58;94618.34;5023438;28;20132;-87
2024/02/02 10:50:50;;;;;;;9.95;5.32;;;;;;;3.91;58.87;94625.59;5023499;28;20273;-87
2024/02/02 10:53:27;;;;;;;10.93;5.07;;;;;;;3.79;58.65;94620.50;5023530;28;20046;-89
2024/02/02 10:56:07;;;;;;;9.77;5.20;;;;;;;3.82;59.02;94606.00;5024895;28;20045;-89
2024/02/02 10:59:10;;;;;;;8.50;4.72;;;;;;;3.82;58.81;94611.28;5026159;28;20060;-87
2024/02/02 11:01:53;;;;;;;9.80;5.22;;;;;;;3.87;57.96;94603.41;5011097;28;20037;-90
2024/02/02 11:04:21;;;;;;;9.32;5.57;;;;;;;3.95;57.92;94616.13;5025115;28;20017;-90
2024/02/02 11:07:27;;;;;;;12.60;6.18;;;;;;;3.93;57.99;94612.13;5023649;28;20021;-88
2024/02/02 11:09:55;;;;;;;13.48;5.38;;;;;;;3.91;58.03;94624.78;5023933;28;20370;-91
2024/02/02 11:12:52;;;;;;;12.35;5.82;;;;;;;3.77;58.99;94633.13;5023604;28;20089;-88
2024/02/02 11:15:42;;;;;;;12.23;5.40;;;;;;;3.67;59.29;94640.94;5022991;28;20021;-90
2024/02/02 11:18:22;;;;;;;18.10;6.40;;;;;;;3.53;60.03;94635.28;5028045;28;20313;-90
2024/02/02 11:21:32;;;;;;;16.38;5.32;;;;;;;3.48;60.33;94626.53;5027745;28;20022;-88
2024/02/02 11:24:37;;;;;;;12.93;6.72;;;;;;;3.40;60.90;94617.25;5027897;28;20033;-89
2024/02/02 11:27:12;;;;;;;19.80;6.50;;;;;;;3.29;61.56;94634.00;5004792;28;20037;-88
2024/02/02 11:30:06;;;;;;;14.27;6.60;;;;;;;3.17;62.11;94637.56;5027130;28;20046;-90
2024/02/02 11:32:39;;;;;;;12.88;6.43;;;;;;;3.19;62.51;94634.69;5025345;28;20025;-87
2024/02/02 11:35:27;;;;;;;19.50;6.78;;;;;;;3.28;62.20;94621.84;5027129;28;20052;-89
2024/02/02 11:38:11;;;;;;;19.90;7.05;;;;;;;3.35;62.35;94620.63;5026719;28;20021;-87
2024/02/02 11:40:37;;;;;;;13.18;6.50;;;;;;;3.24;62.19;94610.22;5025085;28;20101;-88
2024/02/02 11:43:06;;;;;;;12.35;6.50;;;;;;;3.20;62.57;94631.00;5026199;28;20109;-88
2024/02/02 11:45:38;;;;;;;10.82;5.85;;;;;;;3.11;63.04;94635.13;5026400;28;20328;-89
2024/02/02 11:48:05;;;;;;;9.73;5.50;;;;;;;3.07;63.47;94634.81;5026217;28;20032;-89
2024/02/02 11:50:37;;;;;;;12.70;6.40;;;;;;;2.98;64.02;94633.66;5026809;28;20249;-88
2024/02/02 11:53:29;;;;;;;12.63;5.40;;;;;;;2.99;64.32;94651.03;5026213;28;20108;-88
2024/02/02 11:56:02;;;;;;;11.88;6.88;;;;;;;3.02;64.46;94629.50;5016891;28;20026;-88
2024/02/02 11:58:30;;;;;;;12.73;6.60;;;;;;;3.00;64.97;94629.72;5026159;28;20022;-89
2024/02/02 12:01:34;;;;;;;19.88;6.90;;;;;;;3.08;65.04;94635.63;5026581;28;20025;-89